sensor_id;sensor_type;location;lat;lon;timestamp;temperature;humidity
9393;DHT22;4736;52.508;13.422;2023-10-19T00:01:45;6.80;68.80
9393;DHT22;4736;52.508;13.422;2023-10-19T00:04:48;6.80;68.70
9393;DHT22;4736;52.508;13.422;2023-10-19T00:07:54;6.80;68.90
9393;DHT22;4736;52.508;13.422;2023-10-19T00:10:59;6.80;69.10
9393;DHT22;4736;52.508;13.422;2023-10-19T00:14:04;6.80;68.90
9393;DHT22;4736;52.508;13.422;2023-10-19T00:17:18;6.80;68.80
9393;DHT22;4736;52.508;13.422;2023-10-19T00:20:22;6.80;69.30
9393;DHT22;4736;52.508;13.422;2023-10-19T00:23:39;6.70;69.00
9393;DHT22;4736;52.508;13.422;2023-10-19T00:26:44;6.70;69.00
9393;DHT22;4736;52.508;13.422;2023-10-19T00:29:50;6.70;68.70
9393;DHT22;4736;52.508;13.422;2023-10-19T00:32:58;6.70;68.90
9393;DHT22;4736;52.508;13.422;2023-10-19T00:36:06;6.70;68.80
9393;DHT22;4736;52.508;13.422;2023-10-19T00:39:10;6.70;68.70
9393;DHT22;4736;52.508;13.422;2023-10-19T00:42:18;6.70;69.00
9393;DHT22;4736;52.508;13.422;2023-10-19T00:45:27;6.70;68.90
9393;DHT22;4736;52.508;13.422;2023-10-19T00:48:32;6.70;68.80
9393;DHT22;4736;52.508;13.422;2023-10-19T00:51:37;6.70;68.80
9393;DHT22;4736;52.508;13.422;2023-10-19T00:54:45;6.70;68.80
9393;DHT22;4736;52.508;13.422;2023-10-19T00:57:54;6.80;68.70
9393;DHT22;4736;52.508;13.422;2023-10-19T01:00:58;6.70;69.00
9393;DHT22;4736;52.508;13.422;2023-10-19T01:04:03;6.70;69.30
9393;DHT22;4736;52.508;13.422;2023-10-19T01:07:06;6.60;69.40
9393;DHT22;4736;52.508;13.422;2023-10-19T01:10:14;6.60;69.40
9393;DHT22;4736;52.508;13.422;2023-10-19T01:13:22;6.60;69.30
9393;DHT22;4736;52.508;13.422;2023-10-19T01:16:35;6.60;69.50
9393;DHT22;4736;52.508;13.422;2023-10-19T01:19:39;6.50;69.80
9393;DHT22;4736;52.508;13.422;2023-10-19T01:22:54;6.50;69.90
9393;DHT22;4736;52.508;13.422;2023-10-19T01:26:08;6.50;70.10
9393;DHT22;4736;52.508;13.422;2023-10-19T01:29:12;6.50;70.00
9393;DHT22;4736;52.508;13.422;2023-10-19T01:32:16;6.50;69.80
9393;DHT22;4736;52.508;13.422;2023-10-19T01:35:20;6.50;69.50
9393;DHT22;4736;52.508;13.422;2023-10-19T01:38:24;6.50;69.80
9393;DHT22;4736;52.508;13.422;2023-10-19T01:41:28;6.50;69.70
9393;DHT22;4736;52.508;13.422;2023-10-19T01:44:33;6.50;69.70
9393;DHT22;4736;52.508;13.422;2023-10-19T01:47:40;6.50;69.60
9393;DHT22;4736;52.508;13.422;2023-10-19T01:50:44;6.50;69.70
9393;DHT22;4736;52.508;13.422;2023-10-19T01:53:48;6.50;69.60
9393;DHT22;4736;52.508;13.422;2023-10-19T01:56:52;6.50;69.80
9393;DHT22;4736;52.508;13.422;2023-10-19T01:59:58;6.60;69.60
9393;DHT22;4736;52.508;13.422;2023-10-19T02:03:00;6.60;69.50
9393;DHT22;4736;52.508;13.422;2023-10-19T02:06:10;6.60;69.40
9393;DHT22;4736;52.508;13.422;2023-10-19T02:09:20;6.60;69.80
9393;DHT22;4736;52.508;13.422;2023-10-19T02:12:28;6.50;69.50
9393;DHT22;4736;52.508;13.422;2023-10-19T02:15:31;6.60;69.60
9393;DHT22;4736;52.508;13.422;2023-10-19T02:18:36;6.60;69.80
9393;DHT22;4736;52.508;13.422;2023-10-19T02:21:40;6.60;69.60
9393;DHT22;4736;52.508;13.422;2023-10-19T02:24:44;6.60;69.60
9393;DHT22;4736;52.508;13.422;2023-10-19T02:27:47;6.60;69.60
9393;DHT22;4736;52.508;13.422;2023-10-19T02:30:50;6.60;69.60
9393;DHT22;4736;52.508;13.422;2023-10-19T02:33:54;6.60;69.50
9393;DHT22;4736;52.508;13.422;2023-10-19T02:37:01;6.60;69.60
9393;DHT22;4736;52.508;13.422;2023-10-19T02:40:07;6.60;69.40
9393;DHT22;4736;52.508;13.422;2023-10-19T02:43:21;6.60;69.40
9393;DHT22;4736;52.508;13.422;2023-10-19T02:46:25;6.70;69.20
9393;DHT22;4736;52.508;13.422;2023-10-19T02:49:29;6.70;69.30
9393;DHT22;4736;52.508;13.422;2023-10-19T02:52:32;6.70;69.20
9393;DHT22;4736;52.508;13.422;2023-10-19T02:55:36;6.70;69.30
9393;DHT22;4736;52.508;13.422;2023-10-19T02:58:43;6.70;69.10
9393;DHT22;4736;52.508;13.422;2023-10-19T03:01:51;6.70;69.30
9393;DHT22;4736;52.508;13.422;2023-10-19T03:05:03;6.70;69.10
9393;DHT22;4736;52.508;13.422;2023-10-19T03:08:14;6.70;69.20
9393;DHT22;4736;52.508;13.422;2023-10-19T03:11:19;6.70;69.30
9393;DHT22;4736;52.508;13.422;2023-10-19T03:14:22;6.70;69.20
9393;DHT22;4736;52.508;13.422;2023-10-19T03:17:27;6.70;69.10
9393;DHT22;4736;52.508;13.422;2023-10-19T03:20:32;6.80;69.20
9393;DHT22;4736;52.508;13.422;2023-10-19T03:23:35;6.70;69.10
9393;DHT22;4736;52.508;13.422;2023-10-19T03:26:41;6.70;69.10
9393;DHT22;4736;52.508;13.422;2023-10-19T03:29:52;6.70;69.30
9393;DHT22;4736;52.508;13.422;2023-10-19T03:32:57;6.70;69.30
9393;DHT22;4736;52.508;13.422;2023-10-19T03:36:01;6.70;69.50
9393;DHT22;4736;52.508;13.422;2023-10-19T03:39:05;6.70;69.30
9393;DHT22;4736;52.508;13.422;2023-10-19T03:42:16;6.60;69.30
9393;DHT22;4736;52.508;13.422;2023-10-19T03:45:19;6.60;69.40
9393;DHT22;4736;52.508;13.422;2023-10-19T03:48:26;6.70;69.40
9393;DHT22;4736;52.508;13.422;2023-10-19T03:51:36;6.70;69.30
9393;DHT22;4736;52.508;13.422;2023-10-19T03:54:59;6.70;69.10
9393;DHT22;4736;52.508;13.422;2023-10-19T03:58:04;6.70;69.20
9393;DHT22;4736;52.508;13.422;2023-10-19T04:01:08;6.70;69.30
9393;DHT22;4736;52.508;13.422;2023-10-19T04:04:12;6.70;69.20
9393;DHT22;4736;52.508;13.422;2023-10-19T04:07:18;6.70;69.20
9393;DHT22;4736;52.508;13.422;2023-10-19T04:10:23;6.70;69.30
9393;DHT22;4736;52.508;13.422;2023-10-19T04:13:42;6.60;69.30
9393;DHT22;4736;52.508;13.422;2023-10-19T04:16:47;6.60;69.10
9393;DHT22;4736;52.508;13.422;2023-10-19T04:19:51;6.60;69.50
9393;DHT22;4736;52.508;13.422;2023-10-19T04:22:55;6.60;69.80
9393;DHT22;4736;52.508;13.422;2023-10-19T04:26:00;6.60;69.60
9393;DHT22;4736;52.508;13.422;2023-10-19T04:29:08;6.60;69.70
9393;DHT22;4736;52.508;13.422;2023-10-19T04:32:15;6.60;69.90
9393;DHT22;4736;52.508;13.422;2023-10-19T04:35:26;6.60;69.60
9393;DHT22;4736;52.508;13.422;2023-10-19T04:38:34;6.60;69.70
9393;DHT22;4736;52.508;13.422;2023-10-19T04:41:39;6.60;69.70
9393;DHT22;4736;52.508;13.422;2023-10-19T04:44:44;6.60;69.70
9393;DHT22;4736;52.508;13.422;2023-10-19T04:47:50;6.60;69.80
9393;DHT22;4736;52.508;13.422;2023-10-19T04:50:55;6.50;69.90
9393;DHT22;4736;52.508;13.422;2023-10-19T04:53:58;6.50;69.90
9393;DHT22;4736;52.508;13.422;2023-10-19T04:57:04;6.50;70.00
9393;DHT22;4736;52.508;13.422;2023-10-19T05:00:10;6.50;70.00
9393;DHT22;4736;52.508;13.422;2023-10-19T05:03:17;6.60;69.90
9393;DHT22;4736;52.508;13.422;2023-10-19T05:06:21;6.50;70.20
9393;DHT22;4736;52.508;13.422;2023-10-19T05:09:25;6.50;70.10
9393;DHT22;4736;52.508;13.422;2023-10-19T05:12:28;6.40;70.10
9393;DHT22;4736;52.508;13.422;2023-10-19T05:15:32;6.40;70.50
9393;DHT22;4736;52.508;13.422;2023-10-19T05:18:35;6.40;70.20
9393;DHT22;4736;52.508;13.422;2023-10-19T05:21:38;6.40;70.20
9393;DHT22;4736;52.508;13.422;2023-10-19T05:24:41;6.40;70.40
9393;DHT22;4736;52.508;13.422;2023-10-19T05:27:45;6.40;70.50
9393;DHT22;4736;52.508;13.422;2023-10-19T05:30:49;6.40;70.10
9393;DHT22;4736;52.508;13.422;2023-10-19T05:33:52;6.40;70.40
9393;DHT22;4736;52.508;13.422;2023-10-19T05:36:56;6.40;70.40
9393;DHT22;4736;52.508;13.422;2023-10-19T05:40:00;6.40;70.30
9393;DHT22;4736;52.508;13.422;2023-10-19T05:43:06;6.40;70.80
9393;DHT22;4736;52.508;13.422;2023-10-19T05:46:11;6.40;71.00
9393;DHT22;4736;52.508;13.422;2023-10-19T05:49:15;6.40;71.30
9393;DHT22;4736;52.508;13.422;2023-10-19T05:52:19;6.30;71.40
9393;DHT22;4736;52.508;13.422;2023-10-19T05:55:22;6.30;71.50
9393;DHT22;4736;52.508;13.422;2023-10-19T05:58:26;6.30;71.20
9393;DHT22;4736;52.508;13.422;2023-10-19T06:01:30;6.30;71.10
9393;DHT22;4736;52.508;13.422;2023-10-19T06:04:33;6.30;71.60
9393;DHT22;4736;52.508;13.422;2023-10-19T06:07:37;6.30;71.60
9393;DHT22;4736;52.508;13.422;2023-10-19T06:10:40;6.20;71.70
9393;DHT22;4736;52.508;13.422;2023-10-19T06:13:44;6.20;72.70
9393;DHT22;4736;52.508;13.422;2023-10-19T06:16:49;6.20;72.50
9393;DHT22;4736;52.508;13.422;2023-10-19T06:19:52;6.20;72.90
9393;DHT22;4736;52.508;13.422;2023-10-19T06:22:57;6.10;73.00
9393;DHT22;4736;52.508;13.422;2023-10-19T06:26:09;6.20;72.80
9393;DHT22;4736;52.508;13.422;2023-10-19T06:29:14;6.10;73.30
9393;DHT22;4736;52.508;13.422;2023-10-19T06:32:18;6.10;73.90
9393;DHT22;4736;52.508;13.422;2023-10-19T06:35:23;6.10;74.20
9393;DHT22;4736;52.508;13.422;2023-10-19T06:38:26;6.10;74.00
9393;DHT22;4736;52.508;13.422;2023-10-19T06:41:29;6.10;74.00
9393;DHT22;4736;52.508;13.422;2023-10-19T06:44:32;6.10;74.30
9393;DHT22;4736;52.508;13.422;2023-10-19T06:47:37;6.10;74.10
9393;DHT22;4736;52.508;13.422;2023-10-19T06:50:40;6.00;74.50
9393;DHT22;4736;52.508;13.422;2023-10-19T06:53:48;6.00;74.50
9393;DHT22;4736;52.508;13.422;2023-10-19T06:56:52;6.00;74.30
9393;DHT22;4736;52.508;13.422;2023-10-19T06:59:55;6.00;74.60
9393;DHT22;4736;52.508;13.422;2023-10-19T07:02:59;6.00;74.70
9393;DHT22;4736;52.508;13.422;2023-10-19T07:06:04;6.00;74.60
9393;DHT22;4736;52.508;13.422;2023-10-19T07:09:15;6.00;74.70
9393;DHT22;4736;52.508;13.422;2023-10-19T07:12:20;6.10;75.10
9393;DHT22;4736;52.508;13.422;2023-10-19T07:15:24;6.10;74.80
9393;DHT22;4736;52.508;13.422;2023-10-19T07:18:30;6.10;74.90
9393;DHT22;4736;52.508;13.422;2023-10-19T07:21:33;6.20;74.60
9393;DHT22;4736;52.508;13.422;2023-10-19T07:24:38;6.20;74.70
9393;DHT22;4736;52.508;13.422;2023-10-19T07:27:42;6.20;74.70
9393;DHT22;4736;52.508;13.422;2023-10-19T07:30:45;6.30;74.60
9393;DHT22;4736;52.508;13.422;2023-10-19T07:33:50;6.30;74.30
9393;DHT22;4736;52.508;13.422;2023-10-19T07:36:54;6.30;74.40
9393;DHT22;4736;52.508;13.422;2023-10-19T07:39:57;6.30;74.20
9393;DHT22;4736;52.508;13.422;2023-10-19T07:43:00;6.40;74.40
9393;DHT22;4736;52.508;13.422;2023-10-19T07:46:03;6.50;74.30
9393;DHT22;4736;52.508;13.422;2023-10-19T07:49:08;6.50;74.10
9393;DHT22;4736;52.508;13.422;2023-10-19T07:52:16;6.50;74.30
9393;DHT22;4736;52.508;13.422;2023-10-19T07:55:21;6.60;74.20
9393;DHT22;4736;52.508;13.422;2023-10-19T07:58:26;6.70;74.70
9393;DHT22;4736;52.508;13.422;2023-10-19T08:01:29;6.70;74.70
9393;DHT22;4736;52.508;13.422;2023-10-19T08:04:35;6.70;74.00
9393;DHT22;4736;52.508;13.422;2023-10-19T08:07:38;6.80;73.40
9393;DHT22;4736;52.508;13.422;2023-10-19T08:10:44;6.80;73.10
9393;DHT22;4736;52.508;13.422;2023-10-19T08:13:47;6.80;72.80
9393;DHT22;4736;52.508;13.422;2023-10-19T08:16:51;6.90;72.80
9393;DHT22;4736;52.508;13.422;2023-10-19T08:19:56;6.90;72.80
9393;DHT22;4736;52.508;13.422;2023-10-19T08:23:02;6.90;73.00
9393;DHT22;4736;52.508;13.422;2023-10-19T08:26:08;6.90;73.10
9393;DHT22;4736;52.508;13.422;2023-10-19T08:29:11;7.00;73.40
9393;DHT22;4736;52.508;13.422;2023-10-19T08:32:15;7.00;73.30
9393;DHT22;4736;52.508;13.422;2023-10-19T08:35:21;7.00;72.70
9393;DHT22;4736;52.508;13.422;2023-10-19T08:38:27;7.10;72.30
9393;DHT22;4736;52.508;13.422;2023-10-19T08:41:31;7.20;72.70
9393;DHT22;4736;52.508;13.422;2023-10-19T08:44:34;7.20;72.80
9393;DHT22;4736;52.508;13.422;2023-10-19T08:47:42;7.20;72.40
9393;DHT22;4736;52.508;13.422;2023-10-19T08:50:51;7.30;71.70
9393;DHT22;4736;52.508;13.422;2023-10-19T08:53:57;7.40;71.70
9393;DHT22;4736;52.508;13.422;2023-10-19T08:57:01;7.50;71.70
9393;DHT22;4736;52.508;13.422;2023-10-19T09:00:06;7.50;71.90
9393;DHT22;4736;52.508;13.422;2023-10-19T09:03:10;7.60;71.80
9393;DHT22;4736;52.508;13.422;2023-10-19T09:06:17;7.50;71.50
9393;DHT22;4736;52.508;13.422;2023-10-19T09:09:20;7.60;71.40
9393;DHT22;4736;52.508;13.422;2023-10-19T09:12:27;7.70;71.80
9393;DHT22;4736;52.508;13.422;2023-10-19T09:15:30;7.80;71.30
9393;DHT22;4736;52.508;13.422;2023-10-19T09:18:35;7.80;71.20
9393;DHT22;4736;52.508;13.422;2023-10-19T09:21:42;7.70;70.80
9393;DHT22;4736;52.508;13.422;2023-10-19T09:24:45;7.80;71.20
9393;DHT22;4736;52.508;13.422;2023-10-19T09:27:49;7.80;71.30
9393;DHT22;4736;52.508;13.422;2023-10-19T09:30:53;7.90;70.70
9393;DHT22;4736;52.508;13.422;2023-10-19T09:33:56;7.90;71.10
9393;DHT22;4736;52.508;13.422;2023-10-19T09:37:04;8.00;71.30
9393;DHT22;4736;52.508;13.422;2023-10-19T09:40:09;8.00;71.00
9393;DHT22;4736;52.508;13.422;2023-10-19T09:43:16;8.00;71.20
9393;DHT22;4736;52.508;13.422;2023-10-19T09:46:27;8.10;71.00
9393;DHT22;4736;52.508;13.422;2023-10-19T09:49:33;8.10;71.10
9393;DHT22;4736;52.508;13.422;2023-10-19T09:52:39;8.20;71.20
9393;DHT22;4736;52.508;13.422;2023-10-19T09:55:45;8.20;70.90
9393;DHT22;4736;52.508;13.422;2023-10-19T09:58:53;8.20;70.90
9393;DHT22;4736;52.508;13.422;2023-10-19T10:02:06;8.10;71.90
9393;DHT22;4736;52.508;13.422;2023-10-19T10:05:46;8.10;71.80
9393;DHT22;4736;52.508;13.422;2023-10-19T10:08:55;8.20;71.80
9393;DHT22;4736;52.508;13.422;2023-10-19T10:12:16;8.10;72.00
9393;DHT22;4736;52.508;13.422;2023-10-19T10:15:38;8.10;72.50
9393;DHT22;4736;52.508;13.422;2023-10-19T10:18:43;8.10;72.50
9393;DHT22;4736;52.508;13.422;2023-10-19T10:22:04;8.10;72.80
9393;DHT22;4736;52.508;13.422;2023-10-19T10:25:27;8.20;72.70
9393;DHT22;4736;52.508;13.422;2023-10-19T10:28:30;8.20;72.70
9393;DHT22;4736;52.508;13.422;2023-10-19T10:31:35;8.20;72.90
9393;DHT22;4736;52.508;13.422;2023-10-19T10:34:43;8.10;73.40
9393;DHT22;4736;52.508;13.422;2023-10-19T10:37:53;8.10;73.90
9393;DHT22;4736;52.508;13.422;2023-10-19T10:40:59;8.10;74.70
9393;DHT22;4736;52.508;13.422;2023-10-19T10:44:05;8.00;75.30
9393;DHT22;4736;52.508;13.422;2023-10-19T10:47:09;8.00;75.60
9393;DHT22;4736;52.508;13.422;2023-10-19T10:50:19;8.00;76.00
9393;DHT22;4736;52.508;13.422;2023-10-19T10:53:23;8.00;76.40
9393;DHT22;4736;52.508;13.422;2023-10-19T10:56:30;7.90;76.60
9393;DHT22;4736;52.508;13.422;2023-10-19T10:59:33;7.80;76.40
9393;DHT22;4736;52.508;13.422;2023-10-19T11:02:37;7.80;76.70
9393;DHT22;4736;52.508;13.422;2023-10-19T11:05:44;7.80;76.40
9393;DHT22;4736;52.508;13.422;2023-10-19T11:08:48;7.80;76.20
9393;DHT22;4736;52.508;13.422;2023-10-19T11:11:53;7.80;76.20
9393;DHT22;4736;52.508;13.422;2023-10-19T11:14:57;7.80;76.10
9393;DHT22;4736;52.508;13.422;2023-10-19T11:18:01;7.80;76.20
9393;DHT22;4736;52.508;13.422;2023-10-19T11:21:07;7.70;76.40
9393;DHT22;4736;52.508;13.422;2023-10-19T11:24:24;7.80;76.70
9393;DHT22;4736;52.508;13.422;2023-10-19T11:27:29;7.60;77.00
9393;DHT22;4736;52.508;13.422;2023-10-19T11:30:32;7.60;76.90
9393;DHT22;4736;52.508;13.422;2023-10-19T11:33:35;7.60;77.30
9393;DHT22;4736;52.508;13.422;2023-10-19T11:36:38;7.60;77.50
9393;DHT22;4736;52.508;13.422;2023-10-19T11:39:41;7.60;77.20
9393;DHT22;4736;52.508;13.422;2023-10-19T11:42:46;7.60;77.50
9393;DHT22;4736;52.508;13.422;2023-10-19T11:45:50;7.60;77.50
9393;DHT22;4736;52.508;13.422;2023-10-19T11:48:53;7.60;77.90
9393;DHT22;4736;52.508;13.422;2023-10-19T11:51:56;7.60;78.30
9393;DHT22;4736;52.508;13.422;2023-10-19T11:55:00;7.60;78.70
9393;DHT22;4736;52.508;13.422;2023-10-19T11:58:05;7.50;78.60
9393;DHT22;4736;52.508;13.422;2023-10-19T12:01:12;7.50;78.90
9393;DHT22;4736;52.508;13.422;2023-10-19T12:04:19;7.50;78.80
9393;DHT22;4736;52.508;13.422;2023-10-19T12:07:22;7.50;79.10
9393;DHT22;4736;52.508;13.422;2023-10-19T12:10:25;7.50;79.00
9393;DHT22;4736;52.508;13.422;2023-10-19T12:13:35;7.60;79.10
9393;DHT22;4736;52.508;13.422;2023-10-19T12:16:40;7.60;79.30
9393;DHT22;4736;52.508;13.422;2023-10-19T12:19:43;7.60;79.30
9393;DHT22;4736;52.508;13.422;2023-10-19T12:22:48;7.60;79.40
9393;DHT22;4736;52.508;13.422;2023-10-19T12:25:54;7.60;79.40
9393;DHT22;4736;52.508;13.422;2023-10-19T12:29:00;7.60;79.50
9393;DHT22;4736;52.508;13.422;2023-10-19T12:32:06;7.60;79.40
9393;DHT22;4736;52.508;13.422;2023-10-19T12:35:11;7.60;79.40
9393;DHT22;4736;52.508;13.422;2023-10-19T12:38:16;7.60;79.60
9393;DHT22;4736;52.508;13.422;2023-10-19T12:41:21;7.60;79.80
9393;DHT22;4736;52.508;13.422;2023-10-19T12:44:27;7.60;79.80
9393;DHT22;4736;52.508;13.422;2023-10-19T12:47:32;7.60;79.90
9393;DHT22;4736;52.508;13.422;2023-10-19T12:50:37;7.60;79.80
9393;DHT22;4736;52.508;13.422;2023-10-19T12:53:42;7.60;80.00
9393;DHT22;4736;52.508;13.422;2023-10-19T12:56:48;7.60;80.10
9393;DHT22;4736;52.508;13.422;2023-10-19T12:59:56;7.60;80.00
9393;DHT22;4736;52.508;13.422;2023-10-19T13:02:59;7.60;80.00
9393;DHT22;4736;52.508;13.422;2023-10-19T13:06:03;7.60;80.20
9393;DHT22;4736;52.508;13.422;2023-10-19T13:09:09;7.60;80.10
9393;DHT22;4736;52.508;13.422;2023-10-19T13:12:13;7.50;80.30
9393;DHT22;4736;52.508;13.422;2023-10-19T13:15:17;7.50;80.40
9393;DHT22;4736;52.508;13.422;2023-10-19T13:18:20;7.50;80.50
9393;DHT22;4736;52.508;13.422;2023-10-19T13:21:29;7.40;80.40
9393;DHT22;4736;52.508;13.422;2023-10-19T13:24:34;7.40;80.40
9393;DHT22;4736;52.508;13.422;2023-10-19T13:27:43;7.40;80.50
9393;DHT22;4736;52.508;13.422;2023-10-19T13:30:49;7.40;80.70
9393;DHT22;4736;52.508;13.422;2023-10-19T13:33:53;7.40;80.70
9393;DHT22;4736;52.508;13.422;2023-10-19T13:36:56;7.20;80.80
9393;DHT22;4736;52.508;13.422;2023-10-19T13:39:59;7.20;81.20
9393;DHT22;4736;52.508;13.422;2023-10-19T13:43:03;7.20;81.10
9393;DHT22;4736;52.508;13.422;2023-10-19T13:46:09;7.20;81.20
9393;DHT22;4736;52.508;13.422;2023-10-19T13:49:13;7.20;81.20
9393;DHT22;4736;52.508;13.422;2023-10-19T13:52:16;7.20;80.90
9393;DHT22;4736;52.508;13.422;2023-10-19T13:55:21;7.20;81.10
9393;DHT22;4736;52.508;13.422;2023-10-19T13:58:25;7.30;81.20
9393;DHT22;4736;52.508;13.422;2023-10-19T14:01:29;7.30;81.20
9393;DHT22;4736;52.508;13.422;2023-10-19T14:04:33;7.30;81.00
9393;DHT22;4736;52.508;13.422;2023-10-19T14:07:36;7.40;80.90
9393;DHT22;4736;52.508;13.422;2023-10-19T14:10:41;7.40;80.80
9393;DHT22;4736;52.508;13.422;2023-10-19T14:13:44;7.40;80.60
9393;DHT22;4736;52.508;13.422;2023-10-19T14:16:49;7.40;80.50
9393;DHT22;4736;52.508;13.422;2023-10-19T14:19:53;7.40;80.80
9393;DHT22;4736;52.508;13.422;2023-10-19T14:22:56;7.40;80.60
9393;DHT22;4736;52.508;13.422;2023-10-19T14:25:59;7.40;80.60
9393;DHT22;4736;52.508;13.422;2023-10-19T14:29:03;7.40;80.40
9393;DHT22;4736;52.508;13.422;2023-10-19T14:32:07;7.30;80.60
9393;DHT22;4736;52.508;13.422;2023-10-19T14:35:13;7.20;80.90
9393;DHT22;4736;52.508;13.422;2023-10-19T14:38:16;7.20;81.00
9393;DHT22;4736;52.508;13.422;2023-10-19T14:41:21;7.20;81.20
9393;DHT22;4736;52.508;13.422;2023-10-19T14:44:24;7.20;81.20
9393;DHT22;4736;52.508;13.422;2023-10-19T14:47:30;7.20;81.50
9393;DHT22;4736;52.508;13.422;2023-10-19T14:50:34;7.20;81.40
9393;DHT22;4736;52.508;13.422;2023-10-19T14:53:38;7.20;81.30
9393;DHT22;4736;52.508;13.422;2023-10-19T14:56:41;7.20;81.40
9393;DHT22;4736;52.508;13.422;2023-10-19T14:59:44;7.20;81.60
9393;DHT22;4736;52.508;13.422;2023-10-19T15:02:50;7.20;81.60
9393;DHT22;4736;52.508;13.422;2023-10-19T15:05:53;7.20;81.50
9393;DHT22;4736;52.508;13.422;2023-10-19T15:08:56;7.20;81.60
9393;DHT22;4736;52.508;13.422;2023-10-19T15:11:59;7.20;81.60
9393;DHT22;4736;52.508;13.422;2023-10-19T15:15:03;7.20;81.40
9393;DHT22;4736;52.508;13.422;2023-10-19T15:18:08;7.10;81.50
9393;DHT22;4736;52.508;13.422;2023-10-19T15:21:12;7.10;81.70
9393;DHT22;4736;52.508;13.422;2023-10-19T15:24:16;7.10;81.80
9393;DHT22;4736;52.508;13.422;2023-10-19T15:27:20;7.00;81.90
9393;DHT22;4736;52.508;13.422;2023-10-19T15:30:23;7.00;82.00
9393;DHT22;4736;52.508;13.422;2023-10-19T15:33:28;7.10;82.10
9393;DHT22;4736;52.508;13.422;2023-10-19T15:36:33;7.00;82.30
9393;DHT22;4736;52.508;13.422;2023-10-19T15:39:36;7.00;82.30
9393;DHT22;4736;52.508;13.422;2023-10-19T15:42:40;7.00;82.30
9393;DHT22;4736;52.508;13.422;2023-10-19T15:45:44;7.00;82.40
9393;DHT22;4736;52.508;13.422;2023-10-19T15:48:48;7.10;82.30
9393;DHT22;4736;52.508;13.422;2023-10-19T15:51:51;7.10;82.40
9393;DHT22;4736;52.508;13.422;2023-10-19T15:54:54;7.10;82.50
9393;DHT22;4736;52.508;13.422;2023-10-19T15:57:58;7.10;82.50
9393;DHT22;4736;52.508;13.422;2023-10-19T16:01:01;7.10;82.50
9393;DHT22;4736;52.508;13.422;2023-10-19T16:04:06;7.00;82.60
9393;DHT22;4736;52.508;13.422;2023-10-19T16:07:10;7.00;82.80
9393;DHT22;4736;52.508;13.422;2023-10-19T16:10:13;7.10;82.90
9393;DHT22;4736;52.508;13.422;2023-10-19T16:13:17;7.00;82.90
9393;DHT22;4736;52.508;13.422;2023-10-19T16:16:20;7.00;83.00
9393;DHT22;4736;52.508;13.422;2023-10-19T16:19:25;7.00;83.20
9393;DHT22;4736;52.508;13.422;2023-10-19T16:22:28;7.00;83.40
9393;DHT22;4736;52.508;13.422;2023-10-19T16:25:31;7.00;83.30
9393;DHT22;4736;52.508;13.422;2023-10-19T16:28:34;7.00;83.30
9393;DHT22;4736;52.508;13.422;2023-10-19T16:31:37;7.10;83.20
9393;DHT22;4736;52.508;13.422;2023-10-19T16:34:42;7.10;83.00
9393;DHT22;4736;52.508;13.422;2023-10-19T16:37:45;7.10;83.10
9393;DHT22;4736;52.508;13.422;2023-10-19T16:40:50;7.10;83.10
9393;DHT22;4736;52.508;13.422;2023-10-19T16:43:53;7.10;83.10
9393;DHT22;4736;52.508;13.422;2023-10-19T16:46:56;7.10;83.30
9393;DHT22;4736;52.508;13.422;2023-10-19T16:50:01;7.10;83.40
9393;DHT22;4736;52.508;13.422;2023-10-19T16:53:09;7.10;83.60
9393;DHT22;4736;52.508;13.422;2023-10-19T16:56:13;7.00;83.60
9393;DHT22;4736;52.508;13.422;2023-10-19T16:59:16;7.00;83.70
9393;DHT22;4736;52.508;13.422;2023-10-19T17:02:19;7.00;83.70
9393;DHT22;4736;52.508;13.422;2023-10-19T17:05:26;7.10;83.70
9393;DHT22;4736;52.508;13.422;2023-10-19T17:08:29;7.10;83.80
9393;DHT22;4736;52.508;13.422;2023-10-19T17:11:32;7.00;83.90
9393;DHT22;4736;52.508;13.422;2023-10-19T17:14:35;7.00;84.00
9393;DHT22;4736;52.508;13.422;2023-10-19T17:17:39;7.00;84.00
9393;DHT22;4736;52.508;13.422;2023-10-19T17:20:45;7.00;84.00
9393;DHT22;4736;52.508;13.422;2023-10-19T17:23:49;7.00;84.10
9393;DHT22;4736;52.508;13.422;2023-10-19T17:26:52;7.00;84.20
9393;DHT22;4736;52.508;13.422;2023-10-19T17:29:55;7.10;84.20
9393;DHT22;4736;52.508;13.422;2023-10-19T17:32:58;7.00;84.20
9393;DHT22;4736;52.508;13.422;2023-10-19T17:36:14;7.00;84.40
9393;DHT22;4736;52.508;13.422;2023-10-19T17:39:17;7.00;84.20
9393;DHT22;4736;52.508;13.422;2023-10-19T17:42:20;7.00;84.40
9393;DHT22;4736;52.508;13.422;2023-10-19T17:45:24;7.10;84.20
9393;DHT22;4736;52.508;13.422;2023-10-19T17:48:29;7.10;84.20
9393;DHT22;4736;52.508;13.422;2023-10-19T17:51:34;7.10;84.20
9393;DHT22;4736;52.508;13.422;2023-10-19T17:54:37;7.10;84.50
9393;DHT22;4736;52.508;13.422;2023-10-19T17:57:40;7.10;84.30
9393;DHT22;4736;52.508;13.422;2023-10-19T18:00:43;7.10;84.20
9393;DHT22;4736;52.508;13.422;2023-10-19T18:03:47;7.10;84.40
9393;DHT22;4736;52.508;13.422;2023-10-19T18:06:53;7.10;84.20
9393;DHT22;4736;52.508;13.422;2023-10-19T18:09:56;7.10;84.20
9393;DHT22;4736;52.508;13.422;2023-10-19T18:13:00;7.20;84.30
9393;DHT22;4736;52.508;13.422;2023-10-19T18:16:03;7.20;84.20
9393;DHT22;4736;52.508;13.422;2023-10-19T18:19:07;7.20;84.40
9393;DHT22;4736;52.508;13.422;2023-10-19T18:22:12;7.20;84.40
9393;DHT22;4736;52.508;13.422;2023-10-19T18:25:15;7.20;84.40
9393;DHT22;4736;52.508;13.422;2023-10-19T18:28:20;7.10;84.40
9393;DHT22;4736;52.508;13.422;2023-10-19T18:31:23;7.10;84.50
9393;DHT22;4736;52.508;13.422;2023-10-19T18:34:28;7.20;84.50
9393;DHT22;4736;52.508;13.422;2023-10-19T18:37:32;7.10;84.50
9393;DHT22;4736;52.508;13.422;2023-10-19T18:40:36;7.20;84.50
9393;DHT22;4736;52.508;13.422;2023-10-19T18:43:39;7.20;84.50
9393;DHT22;4736;52.508;13.422;2023-10-19T18:46:42;7.20;84.40
9393;DHT22;4736;52.508;13.422;2023-10-19T18:49:45;7.20;84.60
9393;DHT22;4736;52.508;13.422;2023-10-19T18:52:50;7.20;84.70
9393;DHT22;4736;52.508;13.422;2023-10-19T18:55:54;7.20;84.50
9393;DHT22;4736;52.508;13.422;2023-10-19T18:58:58;7.20;84.50
9393;DHT22;4736;52.508;13.422;2023-10-19T19:02:02;7.20;84.40
9393;DHT22;4736;52.508;13.422;2023-10-19T19:05:06;7.20;84.50
9393;DHT22;4736;52.508;13.422;2023-10-19T19:08:12;7.20;84.40
9393;DHT22;4736;52.508;13.422;2023-10-19T19:11:17;7.20;84.40
9393;DHT22;4736;52.508;13.422;2023-10-19T19:14:20;7.20;84.20
9393;DHT22;4736;52.508;13.422;2023-10-19T19:17:26;7.20;84.20
9393;DHT22;4736;52.508;13.422;2023-10-19T19:20:30;7.20;84.10
9393;DHT22;4736;52.508;13.422;2023-10-19T19:23:34;7.20;83.90
9393;DHT22;4736;52.508;13.422;2023-10-19T19:26:38;7.20;83.90
9393;DHT22;4736;52.508;13.422;2023-10-19T19:29:41;7.20;84.10
9393;DHT22;4736;52.508;13.422;2023-10-19T19:32:44;7.20;84.00
9393;DHT22;4736;52.508;13.422;2023-10-19T19:35:47;7.20;84.10
9393;DHT22;4736;52.508;13.422;2023-10-19T19:38:52;7.20;84.40
9393;DHT22;4736;52.508;13.422;2023-10-19T19:41:56;7.20;84.40
9393;DHT22;4736;52.508;13.422;2023-10-19T19:45:00;7.20;84.20
9393;DHT22;4736;52.508;13.422;2023-10-19T19:48:04;7.20;84.20
9393;DHT22;4736;52.508;13.422;2023-10-19T19:51:07;7.20;84.10
9393;DHT22;4736;52.508;13.422;2023-10-19T19:54:13;7.20;84.00
9393;DHT22;4736;52.508;13.422;2023-10-19T19:57:17;7.20;84.20
9393;DHT22;4736;52.508;13.422;2023-10-19T20:00:21;7.20;84.20
9393;DHT22;4736;52.508;13.422;2023-10-19T20:03:25;7.20;84.20
9393;DHT22;4736;52.508;13.422;2023-10-19T20:06:30;7.20;84.20
9393;DHT22;4736;52.508;13.422;2023-10-19T20:09:36;7.20;84.10